sensor_id;sensor_type;location;lat;lon;timestamp;P1;durP1;ratioP1;P2;durP2;ratioP2
49223;SDS011;35050;51.316;5.994;2022-08-21T00:01:24;2.22;;;1.25;;
49223;SDS011;35050;51.316;5.994;2022-08-21T00:03:51;1.67;;;1.13;;
49223;SDS011;35050;51.316;5.994;2022-08-21T00:06:17;1.80;;;1.30;;
49223;SDS011;35050;51.316;5.994;2022-08-21T00:08:43;2.78;;;1.35;;
49223;SDS011;35050;51.316;5.994;2022-08-21T00:11:09;4.82;;;1.45;;
49223;SDS011;35050;51.316;5.994;2022-08-21T00:13:35;1.80;;;1.33;;
49223;SDS011;35050;51.316;5.994;2022-08-21T00:16:02;3.22;;;1.63;;
49223;SDS011;35050;51.316;5.994;2022-08-21T00:18:29;2.08;;;1.35;;
49223;SDS011;35050;51.316;5.994;2022-08-21T00:20:54;1.70;;;1.30;;
49223;SDS011;35050;51.316;5.994;2022-08-21T00:23:20;1.27;;;1.17;;
49223;SDS011;35050;51.316;5.994;2022-08-21T00:25:46;2.38;;;1.48;;
49223;SDS011;35050;51.316;5.994;2022-08-21T00:28:13;1.50;;;1.40;;
49223;SDS011;35050;51.316;5.994;2022-08-21T00:30:39;3.25;;;1.30;;
49223;SDS011;35050;51.316;5.994;2022-08-21T00:33:06;1.90;;;1.45;;
49223;SDS011;35050;51.316;5.994;2022-08-21T00:35:34;1.38;;;1.23;;
49223;SDS011;35050;51.316;5.994;2022-08-21T00:38:03;1.42;;;1.27;;
49223;SDS011;35050;51.316;5.994;2022-08-21T00:40:32;2.58;;;1.40;;
49223;SDS011;35050;51.316;5.994;2022-08-21T00:43:02;2.45;;;1.50;;
49223;SDS011;35050;51.316;5.994;2022-08-21T00:45:30;2.70;;;1.48;;
49223;SDS011;35050;51.316;5.994;2022-08-21T00:47:56;1.52;;;1.42;;
49223;SDS011;35050;51.316;5.994;2022-08-21T00:50:23;1.65;;;1.55;;
49223;SDS011;35050;51.316;5.994;2022-08-21T00:52:53;1.90;;;1.60;;
49223;SDS011;35050;51.316;5.994;2022-08-21T00:55:21;3.10;;;1.70;;
49223;SDS011;35050;51.316;5.994;2022-08-21T00:57:48;1.58;;;1.48;;
49223;SDS011;35050;51.316;5.994;2022-08-21T01:00:18;1.83;;;1.63;;
49223;SDS011;35050;51.316;5.994;2022-08-21T01:02:47;2.05;;;1.45;;
49223;SDS011;35050;51.316;5.994;2022-08-21T01:05:13;1.88;;;1.55;;
49223;SDS011;35050;51.316;5.994;2022-08-21T01:07:40;2.72;;;1.50;;
49223;SDS011;35050;51.316;5.994;2022-08-21T01:10:06;2.40;;;1.60;;
49223;SDS011;35050;51.316;5.994;2022-08-21T01:12:33;4.75;;;1.63;;
49223;SDS011;35050;51.316;5.994;2022-08-21T01:15:00;2.47;;;1.55;;
49223;SDS011;35050;51.316;5.994;2022-08-21T01:17:28;1.77;;;1.67;;
49223;SDS011;35050;51.316;5.994;2022-08-21T01:19:58;1.77;;;1.67;;
49223;SDS011;35050;51.316;5.994;2022-08-21T01:22:25;2.40;;;1.70;;
49223;SDS011;35050;51.316;5.994;2022-08-21T01:24:51;2.80;;;1.77;;
49223;SDS011;35050;51.316;5.994;2022-08-21T01:27:16;2.40;;;1.60;;
49223;SDS011;35050;51.316;5.994;2022-08-21T01:29:47;2.83;;;1.70;;
49223;SDS011;35050;51.316;5.994;2022-08-21T01:32:16;2.38;;;1.75;;
49223;SDS011;35050;51.316;5.994;2022-08-21T01:34:44;1.92;;;1.63;;
49223;SDS011;35050;51.316;5.994;2022-08-21T01:37:11;2.58;;;1.60;;
49223;SDS011;35050;51.316;5.994;2022-08-21T01:39:37;3.20;;;1.67;;
49223;SDS011;35050;51.316;5.994;2022-08-21T01:42:03;2.00;;;1.65;;
49223;SDS011;35050;51.316;5.994;2022-08-21T01:44:30;3.10;;;1.80;;
49223;SDS011;35050;51.316;5.994;2022-08-21T01:46:57;2.78;;;1.88;;
49223;SDS011;35050;51.316;5.994;2022-08-21T01:49:24;2.08;;;1.38;;
49223;SDS011;35050;51.316;5.994;2022-08-21T01:51:50;2.83;;;1.90;;
49223;SDS011;35050;51.316;5.994;2022-08-21T01:54:16;2.83;;;1.63;;
49223;SDS011;35050;51.316;5.994;2022-08-21T01:56:43;1.70;;;1.60;;
49223;SDS011;35050;51.316;5.994;2022-08-21T01:59:11;2.08;;;1.75;;
49223;SDS011;35050;51.316;5.994;2022-08-21T02:01:37;2.05;;;1.60;;
49223;SDS011;35050;51.316;5.994;2022-08-21T02:04:04;2.00;;;1.80;;
49223;SDS011;35050;51.316;5.994;2022-08-21T02:06:31;4.00;;;1.65;;
49223;SDS011;35050;51.316;5.994;2022-08-21T02:08:57;2.95;;;1.67;;
49223;SDS011;35050;51.316;5.994;2022-08-21T02:11:23;1.60;;;1.50;;
49223;SDS011;35050;51.316;5.994;2022-08-21T02:13:49;1.73;;;1.60;;
49223;SDS011;35050;51.316;5.994;2022-08-21T02:16:15;1.77;;;1.48;;
49223;SDS011;35050;51.316;5.994;2022-08-21T02:18:41;1.75;;;1.60;;
49223;SDS011;35050;51.316;5.994;2022-08-21T02:21:07;2.25;;;1.67;;
49223;SDS011;35050;51.316;5.994;2022-08-21T02:23:33;2.03;;;1.75;;
49223;SDS011;35050;51.316;5.994;2022-08-21T02:26:00;2.28;;;1.83;;
49223;SDS011;35050;51.316;5.994;2022-08-21T02:28:27;2.22;;;1.70;;
49223;SDS011;35050;51.316;5.994;2022-08-21T02:30:53;1.73;;;1.63;;
49223;SDS011;35050;51.316;5.994;2022-08-21T02:33:20;3.50;;;1.70;;
49223;SDS011;35050;51.316;5.994;2022-08-21T02:35:47;2.40;;;1.80;;
49223;SDS011;35050;51.316;5.994;2022-08-21T02:38:17;1.70;;;1.50;;
49223;SDS011;35050;51.316;5.994;2022-08-21T02:40:46;2.22;;;2.03;;
49223;SDS011;35050;51.316;5.994;2022-08-21T02:43:13;2.20;;;2.00;;
49223;SDS011;35050;51.316;5.994;2022-08-21T02:45:40;1.60;;;1.50;;
49223;SDS011;35050;51.316;5.994;2022-08-21T02:48:07;2.70;;;2.10;;
49223;SDS011;35050;51.316;5.994;2022-08-21T02:50:36;2.60;;;1.77;;
49223;SDS011;35050;51.316;5.994;2022-08-21T02:53:05;2.58;;;1.90;;
49223;SDS011;35050;51.316;5.994;2022-08-21T02:55:34;1.65;;;1.52;;
49223;SDS011;35050;51.316;5.994;2022-08-21T02:58:01;3.45;;;1.63;;
49223;SDS011;35050;51.316;5.994;2022-08-21T03:00:28;2.42;;;1.75;;
49223;SDS011;35050;51.316;5.994;2022-08-21T03:02:55;3.20;;;1.50;;
49223;SDS011;35050;51.316;5.994;2022-08-21T03:05:21;4.55;;;2.13;;
49223;SDS011;35050;51.316;5.994;2022-08-21T03:07:48;2.30;;;1.80;;
49223;SDS011;35050;51.316;5.994;2022-08-21T03:10:14;2.13;;;1.85;;
49223;SDS011;35050;51.316;5.994;2022-08-21T03:12:40;2.72;;;1.88;;
49223;SDS011;35050;51.316;5.994;2022-08-21T03:15:07;2.60;;;1.70;;
49223;SDS011;35050;51.316;5.994;2022-08-21T03:17:39;3.70;;;1.85;;
49223;SDS011;35050;51.316;5.994;2022-08-21T03:20:05;2.63;;;1.67;;
49223;SDS011;35050;51.316;5.994;2022-08-21T03:22:32;1.92;;;1.70;;
49223;SDS011;35050;51.316;5.994;2022-08-21T03:24:58;1.60;;;1.50;;
49223;SDS011;35050;51.316;5.994;2022-08-21T03:27:24;1.85;;;1.65;;
49223;SDS011;35050;51.316;5.994;2022-08-21T03:29:51;1.80;;;1.67;;
49223;SDS011;35050;51.316;5.994;2022-08-21T03:32:17;2.05;;;1.73;;
49223;SDS011;35050;51.316;5.994;2022-08-21T03:34:44;2.42;;;1.80;;
49223;SDS011;35050;51.316;5.994;2022-08-21T03:37:10;2.42;;;1.67;;
49223;SDS011;35050;51.316;5.994;2022-08-21T03:39:36;2.35;;;1.80;;
49223;SDS011;35050;51.316;5.994;2022-08-21T03:42:02;2.17;;;1.67;;
49223;SDS011;35050;51.316;5.994;2022-08-21T03:44:27;1.70;;;1.60;;
49223;SDS011;35050;51.316;5.994;2022-08-21T03:46:54;2.97;;;1.77;;
49223;SDS011;35050;51.316;5.994;2022-08-21T03:49:21;1.90;;;1.70;;
49223;SDS011;35050;51.316;5.994;2022-08-21T03:51:46;1.85;;;1.75;;
49223;SDS011;35050;51.316;5.994;2022-08-21T03:54:12;2.13;;;1.58;;
49223;SDS011;35050;51.316;5.994;2022-08-21T03:56:38;2.20;;;1.80;;
49223;SDS011;35050;51.316;5.994;2022-08-21T03:59:04;2.60;;;1.90;;
49223;SDS011;35050;51.316;5.994;2022-08-21T04:01:30;3.10;;;2.10;;
49223;SDS011;35050;51.316;5.994;2022-08-21T04:03:57;2.03;;;1.65;;
49223;SDS011;35050;51.316;5.994;2022-08-21T04:06:23;1.85;;;1.65;;
49223;SDS011;35050;51.316;5.994;2022-08-21T04:08:49;3.42;;;1.65;;
49223;SDS011;35050;51.316;5.994;2022-08-21T04:11:15;1.88;;;1.63;;
49223;SDS011;35050;51.316;5.994;2022-08-21T04:13:41;2.05;;;1.80;;
49223;SDS011;35050;51.316;5.994;2022-08-21T04:16:07;2.55;;;1.75;;
49223;SDS011;35050;51.316;5.994;2022-08-21T04:18:33;2.03;;;1.65;;
49223;SDS011;35050;51.316;5.994;2022-08-21T04:20:58;1.45;;;1.35;;
49223;SDS011;35050;51.316;5.994;2022-08-21T04:23:26;2.25;;;1.65;;
49223;SDS011;35050;51.316;5.994;2022-08-21T04:25:52;2.40;;;1.60;;
49223;SDS011;35050;51.316;5.994;2022-08-21T04:28:19;1.60;;;1.50;;
49223;SDS011;35050;51.316;5.994;2022-08-21T04:30:46;2.78;;;1.80;;
49223;SDS011;35050;51.316;5.994;2022-08-21T04:33:12;2.95;;;1.67;;
49223;SDS011;35050;51.316;5.994;2022-08-21T04:35:37;4.15;;;1.83;;
49223;SDS011;35050;51.316;5.994;2022-08-21T04:38:03;1.92;;;1.25;;
49223;SDS011;35050;51.316;5.994;2022-08-21T04:40:29;2.28;;;1.60;;
49223;SDS011;35050;51.316;5.994;2022-08-21T04:42:58;1.67;;;1.52;;
49223;SDS011;35050;51.316;5.994;2022-08-21T04:45:28;1.52;;;1.40;;
49223;SDS011;35050;51.316;5.994;2022-08-21T04:48:07;1.58;;;1.48;;
49223;SDS011;35050;51.316;5.994;2022-08-21T04:50:47;1.70;;;1.48;;
49223;SDS011;35050;51.316;5.994;2022-08-21T04:53:15;2.72;;;1.50;;
49223;SDS011;35050;51.316;5.994;2022-08-21T04:55:47;2.25;;;1.55;;
49223;SDS011;35050;51.316;5.994;2022-08-21T04:58:13;2.15;;;1.50;;
49223;SDS011;35050;51.316;5.994;2022-08-21T05:00:43;1.35;;;1.15;;
49223;SDS011;35050;51.316;5.994;2022-08-21T05:03:10;2.03;;;1.45;;
49223;SDS011;35050;51.316;5.994;2022-08-21T05:05:37;2.88;;;1.50;;
49223;SDS011;35050;51.316;5.994;2022-08-21T05:08:04;2.03;;;1.20;;
49223;SDS011;35050;51.316;5.994;2022-08-21T05:10:32;1.58;;;1.00;;
49223;SDS011;35050;51.316;5.994;2022-08-21T05:12:58;1.60;;;1.30;;
49223;SDS011;35050;51.316;5.994;2022-08-21T05:15:26;2.40;;;1.30;;
49223;SDS011;35050;51.316;5.994;2022-08-21T05:17:51;1.45;;;1.10;;
49223;SDS011;35050;51.316;5.994;2022-08-21T05:20:17;1.38;;;1.20;;
49223;SDS011;35050;51.316;5.994;2022-08-21T05:22:44;2.00;;;1.13;;
49223;SDS011;35050;51.316;5.994;2022-08-21T05:25:10;3.40;;;1.50;;
49223;SDS011;35050;51.316;5.994;2022-08-21T05:27:36;1.67;;;1.30;;
49223;SDS011;35050;51.316;5.994;2022-08-21T05:30:03;2.85;;;1.60;;
49223;SDS011;35050;51.316;5.994;2022-08-21T05:32:32;1.70;;;1.23;;
49223;SDS011;35050;51.316;5.994;2022-08-21T05:34:58;1.55;;;1.45;;
49223;SDS011;35050;51.316;5.994;2022-08-21T05:37:24;1.55;;;1.20;;
49223;SDS011;35050;51.316;5.994;2022-08-21T05:39:49;2.38;;;1.25;;
49223;SDS011;35050;51.316;5.994;2022-08-21T05:42:15;1.80;;;1.20;;
49223;SDS011;35050;51.316;5.994;2022-08-21T05:44:41;1.63;;;1.30;;
49223;SDS011;35050;51.316;5.994;2022-08-21T05:47:08;1.40;;;1.20;;
49223;SDS011;35050;51.316;5.994;2022-08-21T05:49:35;1.08;;;0.95;;
49223;SDS011;35050;51.316;5.994;2022-08-21T05:52:01;2.08;;;1.50;;
49223;SDS011;35050;51.316;5.994;2022-08-21T05:54:27;1.40;;;1.10;;
49223;SDS011;35050;51.316;5.994;2022-08-21T05:56:53;2.10;;;1.42;;
49223;SDS011;35050;51.316;5.994;2022-08-21T05:59:19;3.00;;;1.60;;
49223;SDS011;35050;51.316;5.994;2022-08-21T06:01:45;2.70;;;1.50;;
49223;SDS011;35050;51.316;5.994;2022-08-21T06:04:11;2.13;;;1.27;;
49223;SDS011;35050;51.316;5.994;2022-08-21T06:06:37;1.30;;;1.20;;
49223;SDS011;35050;51.316;5.994;2022-08-21T06:09:03;1.50;;;1.08;;
49223;SDS011;35050;51.316;5.994;2022-08-21T06:11:30;2.13;;;1.27;;
49223;SDS011;35050;51.316;5.994;2022-08-21T06:13:56;1.95;;;1.40;;
49223;SDS011;35050;51.316;5.994;2022-08-21T06:16:22;3.13;;;1.23;;
49223;SDS011;35050;51.316;5.994;2022-08-21T06:18:49;1.67;;;1.13;;
49223;SDS011;35050;51.316;5.994;2022-08-21T06:21:14;2.42;;;1.40;;
49223;SDS011;35050;51.316;5.994;2022-08-21T06:23:40;2.15;;;1.42;;
49223;SDS011;35050;51.316;5.994;2022-08-21T06:26:07;2.38;;;1.30;;
49223;SDS011;35050;51.316;5.994;2022-08-21T06:28:34;2.80;;;1.20;;
49223;SDS011;35050;51.316;5.994;2022-08-21T06:31:00;2.60;;;1.15;;
49223;SDS011;35050;51.316;5.994;2022-08-21T06:33:26;2.17;;;1.20;;
49223;SDS011;35050;51.316;5.994;2022-08-21T06:35:52;2.78;;;1.77;;
49223;SDS011;35050;51.316;5.994;2022-08-21T06:38:18;2.33;;;1.13;;
49223;SDS011;35050;51.316;5.994;2022-08-21T06:40:44;2.65;;;1.45;;
49223;SDS011;35050;51.316;5.994;2022-08-21T06:43:11;2.75;;;1.35;;
49223;SDS011;35050;51.316;5.994;2022-08-21T06:45:41;1.63;;;0.90;;
49223;SDS011;35050;51.316;5.994;2022-08-21T06:48:07;2.35;;;1.02;;
49223;SDS011;35050;51.316;5.994;2022-08-21T06:50:33;3.10;;;1.30;;
49223;SDS011;35050;51.316;5.994;2022-08-21T06:53:04;4.28;;;1.65;;
49223;SDS011;35050;51.316;5.994;2022-08-21T06:55:35;2.20;;;1.13;;
49223;SDS011;35050;51.316;5.994;2022-08-21T06:58:01;1.33;;;1.23;;
49223;SDS011;35050;51.316;5.994;2022-08-21T07:00:28;2.80;;;1.20;;
49223;SDS011;35050;51.316;5.994;2022-08-21T07:02:54;4.50;;;1.63;;
49223;SDS011;35050;51.316;5.994;2022-08-21T07:05:20;2.97;;;1.38;;
49223;SDS011;35050;51.316;5.994;2022-08-21T07:07:47;2.25;;;1.10;;
49223;SDS011;35050;51.316;5.994;2022-08-21T07:10:13;5.50;;;1.83;;
49223;SDS011;35050;51.316;5.994;2022-08-21T07:12:39;3.03;;;1.75;;
49223;SDS011;35050;51.316;5.994;2022-08-21T07:15:05;2.03;;;1.25;;
49223;SDS011;35050;51.316;5.994;2022-08-21T07:17:31;2.92;;;1.02;;
49223;SDS011;35050;51.316;5.994;2022-08-21T07:19:57;1.60;;;0.93;;
49223;SDS011;35050;51.316;5.994;2022-08-21T07:22:23;5.88;;;2.30;;
49223;SDS011;35050;51.316;5.994;2022-08-21T07:24:52;2.97;;;1.50;;
49223;SDS011;35050;51.316;5.994;2022-08-21T07:27:19;1.75;;;1.17;;
49223;SDS011;35050;51.316;5.994;2022-08-21T07:29:45;2.05;;;1.10;;
49223;SDS011;35050;51.316;5.994;2022-08-21T07:32:10;3.67;;;1.27;;
49223;SDS011;35050;51.316;5.994;2022-08-21T07:34:36;4.72;;;1.88;;
49223;SDS011;35050;51.316;5.994;2022-08-21T07:37:01;3.33;;;1.55;;
49223;SDS011;35050;51.316;5.994;2022-08-21T07:39:27;2.67;;;1.30;;
49223;SDS011;35050;51.316;5.994;2022-08-21T07:41:53;2.67;;;1.40;;
49223;SDS011;35050;51.316;5.994;2022-08-21T07:44:18;2.75;;;1.20;;
49223;SDS011;35050;51.316;5.994;2022-08-21T07:46:44;3.25;;;1.40;;
49223;SDS011;35050;51.316;5.994;2022-08-21T07:49:10;4.47;;;1.52;;
49223;SDS011;35050;51.316;5.994;2022-08-21T07:51:35;3.15;;;1.40;;
49223;SDS011;35050;51.316;5.994;2022-08-21T07:54:01;3.78;;;1.60;;
49223;SDS011;35050;51.316;5.994;2022-08-21T07:56:27;3.97;;;1.83;;
49223;SDS011;35050;51.316;5.994;2022-08-21T07:58:54;3.97;;;1.38;;
49223;SDS011;35050;51.316;5.994;2022-08-21T08:01:22;4.38;;;1.73;;
49223;SDS011;35050;51.316;5.994;2022-08-21T08:03:48;4.72;;;1.52;;
49223;SDS011;35050;51.316;5.994;2022-08-21T08:06:14;4.85;;;1.70;;
49223;SDS011;35050;51.316;5.994;2022-08-21T08:08:41;1.50;;;1.13;;
49223;SDS011;35050;51.316;5.994;2022-08-21T08:11:08;3.20;;;1.13;;
49223;SDS011;35050;51.316;5.994;2022-08-21T08:13:41;4.10;;;1.42;;
49223;SDS011;35050;51.316;5.994;2022-08-21T08:16:14;4.75;;;2.00;;
49223;SDS011;35050;51.316;5.994;2022-08-21T08:18:40;3.42;;;1.33;;
49223;SDS011;35050;51.316;5.994;2022-08-21T08:21:07;3.33;;;0.98;;
49223;SDS011;35050;51.316;5.994;2022-08-21T08:23:33;2.47;;;1.48;;
49223;SDS011;35050;51.316;5.994;2022-08-21T08:25:59;3.92;;;1.10;;
49223;SDS011;35050;51.316;5.994;2022-08-21T08:28:27;4.55;;;1.60;;
49223;SDS011;35050;51.316;5.994;2022-08-21T08:30:53;4.20;;;1.50;;
49223;SDS011;35050;51.316;5.994;2022-08-21T08:33:19;3.75;;;1.23;;
49223;SDS011;35050;51.316;5.994;2022-08-21T08:35:46;1.85;;;1.05;;
49223;SDS011;35050;51.316;5.994;2022-08-21T08:38:14;1.70;;;0.85;;
49223;SDS011;35050;51.316;5.994;2022-08-21T08:40:45;2.08;;;0.93;;
49223;SDS011;35050;51.316;5.994;2022-08-21T08:43:16;1.20;;;0.82;;
49223;SDS011;35050;51.316;5.994;2022-08-21T08:45:44;2.15;;;1.15;;
49223;SDS011;35050;51.316;5.994;2022-08-21T08:48:16;4.90;;;1.30;;
49223;SDS011;35050;51.316;5.994;2022-08-21T08:51:08;2.95;;;1.00;;
49223;SDS011;35050;51.316;5.994;2022-08-21T08:53:53;2.72;;;1.02;;
49223;SDS011;35050;51.316;5.994;2022-08-21T08:56:32;3.65;;;1.10;;
49223;SDS011;35050;51.316;5.994;2022-08-21T08:59:02;3.95;;;1.17;;
49223;SDS011;35050;51.316;5.994;2022-08-21T09:01:33;2.28;;;0.90;;
49223;SDS011;35050;51.316;5.994;2022-08-21T09:03:59;3.13;;;1.15;;
49223;SDS011;35050;51.316;5.994;2022-08-21T09:06:28;4.15;;;1.10;;
49223;SDS011;35050;51.316;5.994;2022-08-21T09:09:15;5.32;;;1.10;;
49223;SDS011;35050;51.316;5.994;2022-08-21T09:14:39;5.22;;;1.55;;
49223;SDS011;35050;51.316;5.994;2022-08-21T09:17:40;2.38;;;1.20;;
49223;SDS011;35050;51.316;5.994;2022-08-21T09:28:22;3.20;;;1.10;;
49223;SDS011;35050;51.316;5.994;2022-08-21T09:30:48;3.85;;;1.60;;
49223;SDS011;35050;51.316;5.994;2022-08-21T09:33:16;5.90;;;1.45;;
49223;SDS011;35050;51.316;5.994;2022-08-21T09:35:52;1.92;;;0.93;;
49223;SDS011;35050;51.316;5.994;2022-08-21T09:38:32;2.20;;;1.00;;
49223;SDS011;35050;51.316;5.994;2022-08-21T09:41:02;6.18;;;1.33;;
49223;SDS011;35050;51.316;5.994;2022-08-21T09:43:28;3.53;;;1.40;;
49223;SDS011;35050;51.316;5.994;2022-08-21T09:46:19;3.33;;;1.05;;
49223;SDS011;35050;51.316;5.994;2022-08-21T09:48:47;5.22;;;1.33;;
49223;SDS011;35050;51.316;5.994;2022-08-21T09:51:34;3.53;;;1.60;;
49223;SDS011;35050;51.316;5.994;2022-08-21T09:56:37;4.70;;;1.30;;
49223;SDS011;35050;51.316;5.994;2022-08-21T09:59:34;2.58;;;0.93;;
49223;SDS011;35050;51.316;5.994;2022-08-21T10:02:03;4.00;;;1.15;;
49223;SDS011;35050;51.316;5.994;2022-08-21T10:04:52;4.28;;;1.30;;
49223;SDS011;35050;51.316;5.994;2022-08-21T10:07:23;2.97;;;1.23;;
49223;SDS011;35050;51.316;5.994;2022-08-21T10:10:01;3.08;;;1.10;;
49223;SDS011;35050;51.316;5.994;2022-08-21T10:12:41;3.05;;;1.10;;
49223;SDS011;35050;51.316;5.994;2022-08-21T10:20:39;2.75;;;0.90;;
49223;SDS011;35050;51.316;5.994;2022-08-21T10:25:37;2.28;;;1.02;;
49223;SDS011;35050;51.316;5.994;2022-08-21T10:33:53;3.17;;;0.90;;
49223;SDS011;35050;51.316;5.994;2022-08-21T10:39:16;4.53;;;1.20;;
49223;SDS011;35050;51.316;5.994;2022-08-21T10:47:35;2.70;;;1.00;;
49223;SDS011;35050;51.316;5.994;2022-08-21T10:55:43;2.67;;;1.10;;
49223;SDS011;35050;51.316;5.994;2022-08-21T10:58:23;3.67;;;1.20;;
49223;SDS011;35050;51.316;5.994;2022-08-21T11:00:56;2.05;;;1.13;;
49223;SDS011;35050;51.316;5.994;2022-08-21T11:06:11;1.83;;;0.98;;
49223;SDS011;35050;51.316;5.994;2022-08-21T11:08:46;3.40;;;1.05;;
49223;SDS011;35050;51.316;5.994;2022-08-21T11:11:26;1.88;;;0.90;;
49223;SDS011;35050;51.316;5.994;2022-08-21T11:14:01;3.17;;;1.27;;
49223;SDS011;35050;51.316;5.994;2022-08-21T11:16:39;3.72;;;1.10;;
49223;SDS011;35050;51.316;5.994;2022-08-21T11:19:22;3.28;;;1.10;;
49223;SDS011;35050;51.316;5.994;2022-08-21T11:22:05;2.03;;;1.10;;
49223;SDS011;35050;51.316;5.994;2022-08-21T11:24:54;2.60;;;0.90;;
49223;SDS011;35050;51.316;5.994;2022-08-21T11:27:50;2.92;;;1.20;;
49223;SDS011;35050;51.316;5.994;2022-08-21T11:30:21;1.95;;;0.80;;
49223;SDS011;35050;51.316;5.994;2022-08-21T11:35:28;2.25;;;1.00;;
49223;SDS011;35050;51.316;5.994;2022-08-21T11:38:17;2.05;;;0.95;;
49223;SDS011;35050;51.316;5.994;2022-08-21T11:51:30;1.73;;;1.00;;
49223;SDS011;35050;51.316;5.994;2022-08-21T11:54:02;2.08;;;0.90;;
49223;SDS011;35050;51.316;5.994;2022-08-21T11:59:15;2.78;;;1.10;;
49223;SDS011;35050;51.316;5.994;2022-08-21T12:01:46;0.93;;;0.60;;
49223;SDS011;35050;51.316;5.994;2022-08-21T12:04:32;1.45;;;0.75;;
49223;SDS011;35050;51.316;5.994;2022-08-21T12:07:14;3.53;;;0.93;;
49223;SDS011;35050;51.316;5.994;2022-08-21T12:09:51;1.63;;;0.90;;
49223;SDS011;35050;51.316;5.994;2022-08-21T12:15:27;1.65;;;0.85;;
49223;SDS011;35050;51.316;5.994;2022-08-21T12:17:59;2.65;;;0.90;;
49223;SDS011;35050;51.316;5.994;2022-08-21T12:26:01;1.65;;;0.80;;
49223;SDS011;35050;51.316;5.994;2022-08-21T12:28:28;1.30;;;0.70;;
49223;SDS011;35050;51.316;5.994;2022-08-21T12:30:56;2.38;;;0.82;;
49223;SDS011;35050;51.316;5.994;2022-08-21T12:38:45;2.88;;;0.90;;
49223;SDS011;35050;51.316;5.994;2022-08-21T12:41:30;1.20;;;0.70;;
49223;SDS011;35050;51.316;5.994;2022-08-21T12:44:08;2.58;;;0.88;;
49223;SDS011;35050;51.316;5.994;2022-08-21T12:46:50;4.18;;;1.05;;
49223;SDS011;35050;51.316;5.994;2022-08-21T12:49:33;2.33;;;0.80;;
49223;SDS011;35050;51.316;5.994;2022-08-21T12:52:11;1.33;;;0.80;;
49223;SDS011;35050;51.316;5.994;2022-08-21T12:54:45;1.33;;;0.80;;
49223;SDS011;35050;51.316;5.994;2022-08-21T12:57:21;1.80;;;0.80;;
49223;SDS011;35050;51.316;5.994;2022-08-21T12:59:53;1.80;;;0.68;;
49223;SDS011;35050;51.316;5.994;2022-08-21T13:02:25;1.85;;;0.70;;
49223;SDS011;35050;51.316;5.994;2022-08-21T13:04:56;2.13;;;1.00;;
49223;SDS011;35050;51.316;5.994;2022-08-21T13:07:30;2.22;;;1.10;;
49223;SDS011;35050;51.316;5.994;2022-08-21T13:10:06;3.42;;;1.08;;
49223;SDS011;35050;51.316;5.994;2022-08-21T13:12:49;2.28;;;1.08;;
49223;SDS011;35050;51.316;5.994;2022-08-21T13:15:21;1.67;;;0.85;;
49223;SDS011;35050;51.316;5.994;2022-08-21T13:17:50;2.33;;;0.80;;
49223;SDS011;35050;51.316;5.994;2022-08-21T13:20:22;1.38;;;0.70;;
49223;SDS011;35050;51.316;5.994;2022-08-21T13:22:50;1.48;;;0.82;;
49223;SDS011;35050;51.316;5.994;2022-08-21T13:25:17;1.92;;;0.90;;
49223;SDS011;35050;51.316;5.994;2022-08-21T13:27:55;2.88;;;1.02;;
49223;SDS011;35050;51.316;5.994;2022-08-21T13:30:32;1.67;;;0.90;;
49223;SDS011;35050;51.316;5.994;2022-08-21T13:32:59;1.35;;;0.70;;
49223;SDS011;35050;51.316;5.994;2022-08-21T13:35:29;2.33;;;0.95;;
49223;SDS011;35050;51.316;5.994;2022-08-21T13:38:01;1.23;;;0.57;;
49223;SDS011;35050;51.316;5.994;2022-08-21T13:40:32;1.20;;;0.60;;
49223;SDS011;35050;51.316;5.994;2022-08-21T13:43:11;1.88;;;0.75;;
49223;SDS011;35050;51.316;5.994;2022-08-21T13:45:38;1.70;;;0.80;;
49223;SDS011;35050;51.316;5.994;2022-08-21T13:48:09;4.40;;;1.00;;
49223;SDS011;35050;51.316;5.994;2022-08-21T13:50:35;3.33;;;0.80;;
49223;SDS011;35050;51.316;5.994;2022-08-21T13:53:04;3.42;;;0.90;;
49223;SDS011;35050;51.316;5.994;2022-08-21T13:55:40;1.42;;;0.73;;
49223;SDS011;35050;51.316;5.994;2022-08-21T13:58:08;1.95;;;0.90;;
49223;SDS011;35050;51.316;5.994;2022-08-21T14:00:43;2.25;;;0.98;;
49223;SDS011;35050;51.316;5.994;2022-08-21T14:03:11;2.38;;;0.88;;
49223;SDS011;35050;51.316;5.994;2022-08-21T14:05:48;1.10;;;0.65;;
49223;SDS011;35050;51.316;5.994;2022-08-21T14:08:14;1.42;;;0.50;;
49223;SDS011;35050;51.316;5.994;2022-08-21T14:10:49;1.25;;;0.65;;
49223;SDS011;35050;51.316;5.994;2022-08-21T14:16:08;1.83;;;0.70;;
49223;SDS011;35050;51.316;5.994;2022-08-21T14:21:31;3.10;;;0.60;;
49223;SDS011;35050;51.316;5.994;2022-08-21T14:29:18;1.92;;;0.80;;
49223;SDS011;35050;51.316;5.994;2022-08-21T14:31:49;1.52;;;0.90;;
49223;SDS011;35050;51.316;5.994;2022-08-21T14:34:17;2.00;;;0.85;;
49223;SDS011;35050;51.316;5.994;2022-08-21T14:36:43;3.20;;;1.15;;
49223;SDS011;35050;51.316;5.994;2022-08-21T14:39:09;0.98;;;0.60;;
49223;SDS011;35050;51.316;5.994;2022-08-21T14:41:34;1.70;;;0.77;;
49223;SDS011;35050;51.316;5.994;2022-08-21T14:44:01;2.20;;;0.98;;
49223;SDS011;35050;51.316;5.994;2022-08-21T14:46:28;2.03;;;1.10;;
49223;SDS011;35050;51.316;5.994;2022-08-21T14:48:56;2.20;;;0.88;;
49223;SDS011;35050;51.316;5.994;2022-08-21T14:51:23;2.97;;;1.00;;
49223;SDS011;35050;51.316;5.994;2022-08-21T14:53:49;2.88;;;1.02;;
49223;SDS011;35050;51.316;5.994;2022-08-21T14:56:14;2.47;;;1.05;;
49223;SDS011;35050;51.316;5.994;2022-08-21T14:58:41;2.22;;;0.70;;
49223;SDS011;35050;51.316;5.994;2022-08-21T15:01:10;0.95;;;0.70;;
49223;SDS011;35050;51.316;5.994;2022-08-21T15:03:38;2.53;;;1.27;;
49223;SDS011;35050;51.316;5.994;2022-08-21T15:06:04;2.00;;;1.00;;
49223;SDS011;35050;51.316;5.994;2022-08-21T15:08:31;1.45;;;0.90;;
49223;SDS011;35050;51.316;5.994;2022-08-21T15:10:57;1.50;;;0.90;;
49223;SDS011;35050;51.316;5.994;2022-08-21T15:13:23;1.40;;;0.68;;
49223;SDS011;35050;51.316;5.994;2022-08-21T15:15:50;1.95;;;0.85;;
49223;SDS011;35050;51.316;5.994;2022-08-21T15:18:19;1.95;;;0.90;;
49223;SDS011;35050;51.316;5.994;2022-08-21T15:20:45;2.00;;;0.95;;
49223;SDS011;35050;51.316;5.994;2022-08-21T15:23:11;1.55;;;0.68;;
49223;SDS011;35050;51.316;5.994;2022-08-21T15:25:39;2.35;;;1.00;;
49223;SDS011;35050;51.316;5.994;2022-08-21T15:28:06;2.95;;;1.00;;
49223;SDS011;35050;51.316;5.994;2022-08-21T15:30:32;1.15;;;0.70;;
49223;SDS011;35050;51.316;5.994;2022-08-21T15:32:58;1.35;;;0.77;;
49223;SDS011;35050;51.316;5.994;2022-08-21T15:35:24;2.03;;;0.80;;
49223;SDS011;35050;51.316;5.994;2022-08-21T15:37:50;1.25;;;0.75;;
49223;SDS011;35050;51.316;5.994;2022-08-21T15:40:16;2.33;;;0.90;;
49223;SDS011;35050;51.316;5.994;2022-08-21T15:42:41;2.22;;;1.10;;
49223;SDS011;35050;51.316;5.994;2022-08-21T15:45:08;2.08;;;1.00;;
49223;SDS011;35050;51.316;5.994;2022-08-21T15:47:37;2.75;;;0.90;;
49223;SDS011;35050;51.316;5.994;2022-08-21T15:50:04;1.80;;;1.10;;
49223;SDS011;35050;51.316;5.994;2022-08-21T15:52:32;2.25;;;0.90;;
49223;SDS011;35050;51.316;5.994;2022-08-21T15:54:58;2.30;;;0.90;;
49223;SDS011;35050;51.316;5.994;2022-08-21T15:57:24;1.98;;;0.98;;
49223;SDS011;35050;51.316;5.994;2022-08-21T15:59:52;1.88;;;0.90;;
49223;SDS011;35050;51.316;5.994;2022-08-21T16:02:23;1.80;;;0.77;;
49223;SDS011;35050;51.316;5.994;2022-08-21T16:04:51;1.27;;;0.80;;
49223;SDS011;35050;51.316;5.994;2022-08-21T16:07:17;2.38;;;1.05;;
49223;SDS011;35050;51.316;5.994;2022-08-21T16:09:43;1.65;;;0.93;;
49223;SDS011;35050;51.316;5.994;2022-08-21T16:12:09;4.00;;;1.40;;
49223;SDS011;35050;51.316;5.994;2022-08-21T16:14:40;2.90;;;1.30;;
49223;SDS011;35050;51.316;5.994;2022-08-21T16:17:06;1.55;;;0.80;;
49223;SDS011;35050;51.316;5.994;2022-08-21T16:19:32;3.15;;;0.80;;
49223;SDS011;35050;51.316;5.994;2022-08-21T16:21:59;2.33;;;0.80;;
49223;SDS011;35050;51.316;5.994;2022-08-21T16:24:25;3.47;;;1.10;;